createdAt,value
2023-03-17T00:03:45.121Z,0.89
2023-03-17T00:07:25.132Z,0.91
2023-03-17T00:10:54.979Z,0.94
2023-03-17T00:14:20.276Z,0.97
2023-03-17T00:17:45.561Z,1.00
2023-03-17T00:21:13.195Z,1.05
2023-03-17T00:24:38.275Z,1.08
2023-03-17T00:28:05.070Z,1.15
2023-03-17T00:31:32.974Z,1.23
2023-03-17T00:34:58.203Z,1.32
2023-03-17T00:38:24.976Z,1.36
2023-03-17T00:41:50.184Z,1.42
2023-03-17T00:45:16.001Z,1.50
2023-03-17T00:48:40.881Z,1.58
2023-03-17T00:52:06.189Z,1.66
2023-03-17T00:55:30.928Z,1.70
2023-03-17T00:58:57.099Z,1.70
2023-03-17T01:02:22.368Z,1.69
2023-03-17T01:05:49.076Z,1.72
2023-03-17T01:09:16.084Z,1.75
2023-03-17T01:12:41.785Z,1.74
2023-03-17T01:16:11.490Z,1.72
2023-03-17T01:19:36.878Z,1.71
2023-03-17T01:23:02.934Z,1.69
2023-03-17T01:26:27.606Z,1.66
2023-03-17T01:29:55.271Z,1.62
2023-03-17T01:33:21.087Z,1.58
2023-03-17T01:36:47.124Z,1.53
2023-03-17T01:40:15.606Z,1.48
2023-03-17T01:43:40.234Z,1.43
2023-03-17T01:47:05.456Z,1.39
2023-03-17T01:50:30.832Z,1.34
2023-03-17T01:53:56.803Z,1.28
2023-03-17T01:57:26.955Z,1.23
2023-03-17T02:00:52.222Z,1.19
2023-03-17T02:04:21.056Z,1.18
2023-03-17T02:07:46.630Z,1.14
2023-03-17T02:11:11.853Z,1.11
2023-03-17T02:14:37.789Z,1.08
2023-03-17T02:18:03.107Z,1.08
2023-03-17T02:21:38.466Z,1.06
2023-03-17T02:25:06.722Z,1.05
2023-03-17T02:28:32.483Z,1.06
2023-03-17T02:31:59.157Z,1.09
2023-03-17T02:35:24.668Z,1.10
2023-03-17T02:38:50.252Z,1.13
2023-03-17T02:42:15.955Z,1.18
2023-03-17T02:45:42.201Z,1.24
2023-03-17T02:49:10.793Z,1.32
2023-03-17T02:52:36.843Z,1.38
2023-03-17T02:56:02.479Z,1.44
2023-03-17T02:59:28.600Z,1.49
2023-03-17T03:02:55.265Z,1.56
2023-03-17T03:06:20.434Z,1.57
2023-03-17T03:09:46.143Z,1.59
2023-03-17T03:13:13.870Z,1.63
2023-03-17T03:16:39.102Z,1.68
2023-03-17T03:20:03.934Z,1.71
2023-03-17T03:23:29.271Z,1.74
2023-03-17T03:26:54.326Z,1.75
2023-03-17T03:30:19.644Z,1.74
2023-03-17T03:33:45.029Z,1.72
2023-03-17T03:37:09.945Z,1.68
2023-03-17T03:40:34.720Z,1.64
2023-03-17T03:43:59.877Z,1.59
2023-03-17T03:47:25.252Z,1.53
2023-03-17T03:50:56.907Z,1.49
2023-03-17T03:54:24.075Z,1.48
2023-03-17T03:57:49.086Z,1.46
2023-03-17T04:01:14.414Z,1.41
2023-03-17T04:04:41.094Z,1.36
2023-03-17T04:08:07.235Z,1.35
2023-03-17T04:11:32.936Z,1.33
2023-03-17T04:14:58.296Z,1.31
2023-03-17T04:18:22.978Z,1.33
2023-03-17T04:21:58.472Z,1.32
2023-03-17T04:25:23.543Z,1.32
2023-03-17T04:28:48.502Z,1.31
2023-03-17T04:32:15.147Z,1.27
2023-03-17T04:35:40.203Z,1.23
2023-03-17T04:39:05.108Z,1.17
2023-03-17T04:42:30.209Z,1.14
2023-03-17T04:45:55.278Z,1.11
2023-03-17T04:49:20.174Z,1.10
2023-03-17T04:52:45.861Z,1.10
2023-03-17T04:56:10.859Z,1.14
2023-03-17T04:59:35.572Z,1.19
2023-03-17T05:03:01.230Z,1.22
2023-03-17T05:06:26.744Z,1.25
2023-03-17T05:09:52.192Z,1.32
2023-03-17T05:13:17.679Z,1.39
2023-03-17T05:16:42.834Z,1.43
2023-03-17T05:20:09.707Z,1.51
2023-03-17T05:23:34.675Z,1.58
2023-03-17T05:26:59.883Z,1.64
2023-03-17T05:30:25.535Z,1.69
2023-03-17T05:33:51.241Z,1.69
2023-03-17T05:37:16.124Z,1.67
2023-03-17T05:40:41.440Z,1.65
2023-03-17T05:44:06.774Z,1.58
2023-03-17T05:47:32.352Z,1.54
2023-03-17T05:50:57.330Z,1.52
2023-03-17T05:54:22.495Z,1.48
2023-03-17T05:57:47.908Z,1.44
2023-03-17T06:01:12.934Z,1.43
2023-03-17T06:04:37.720Z,1.42
2023-03-17T06:08:03.102Z,1.44
2023-03-17T06:11:28.310Z,1.44
2023-03-17T06:14:53.394Z,1.45
2023-03-17T06:18:19.739Z,1.50
2023-03-17T06:21:47.544Z,1.51
2023-03-17T06:25:14.120Z,1.53
2023-03-17T06:28:39.110Z,1.56
2023-03-17T06:32:19.363Z,1.58
2023-03-17T06:35:45.268Z,1.61
2023-03-17T06:39:11.141Z,1.62
2023-03-17T06:42:35.925Z,1.63
2023-03-17T06:46:01.615Z,1.67
2023-03-17T06:49:26.855Z,1.72
2023-03-17T06:52:51.664Z,1.77
2023-03-17T06:56:29.251Z,1.83
2023-03-17T06:59:55.255Z,1.90
2023-03-17T07:03:20.458Z,2.00
2023-03-17T07:06:45.133Z,2.05
2023-03-17T07:10:11.710Z,2.19
2023-03-17T07:13:37.647Z,2.27
2023-03-17T07:17:03.504Z,2.36
2023-03-17T07:20:28.113Z,2.41
2023-03-17T07:23:53.028Z,2.49
2023-03-17T07:27:17.920Z,2.59
2023-03-17T07:30:46.949Z,2.64
2023-03-17T07:34:11.518Z,2.68
2023-03-17T07:37:37.029Z,2.73
2023-03-17T07:41:01.897Z,2.79
2023-03-17T07:44:27.855Z,2.83
2023-03-17T07:47:54.224Z,2.92
2023-03-17T07:51:21.283Z,3.02
2023-03-17T07:54:47.211Z,3.14
2023-03-17T07:58:15.127Z,3.25
2023-03-17T08:01:40.364Z,3.37
2023-03-17T08:05:05.116Z,3.45
2023-03-17T08:08:29.927Z,3.52
2023-03-17T08:11:54.491Z,3.59
2023-03-17T08:15:20.273Z,3.66
2023-03-17T08:19:12.783Z,3.72
2023-03-17T08:22:37.605Z,3.81
2023-03-17T08:26:04.948Z,3.89
2023-03-17T08:29:30.789Z,3.97
2023-03-17T08:32:55.586Z,4.04
2023-03-17T08:36:20.978Z,4.11
2023-03-17T08:39:45.895Z,4.22
2023-03-17T08:43:11.533Z,4.39
2023-03-17T08:46:37.009Z,4.55
2023-03-17T08:50:01.998Z,4.74
2023-03-17T08:53:27.398Z,4.96
2023-03-17T08:56:52.965Z,5.18
2023-03-17T09:00:20.746Z,5.40
2023-03-17T09:03:45.819Z,5.62
2023-03-17T09:07:11.424Z,5.77
2023-03-17T09:10:36.458Z,5.87
2023-03-17T09:14:01.475Z,5.98
2023-03-17T09:17:26.178Z,6.13
2023-03-17T09:20:51.030Z,6.25
2023-03-17T09:24:15.728Z,6.38
2023-03-17T09:27:40.674Z,6.47
2023-03-17T09:31:08.200Z,6.54
2023-03-17T09:34:32.969Z,6.71
2023-03-17T09:37:57.897Z,6.89
2023-03-17T09:41:42.638Z,7.03
2023-03-17T09:45:18.896Z,7.24
2023-03-17T09:48:57.893Z,7.38
2023-03-17T09:52:26.336Z,7.50
2023-03-17T09:55:53.944Z,7.63
2023-03-17T09:59:29.453Z,7.77
2023-03-17T10:02:54.778Z,7.89
2023-03-17T10:06:25.462Z,7.97
2023-03-17T10:09:55.624Z,8.04
2023-03-17T10:13:25.373Z,8.08
2023-03-17T10:16:54.277Z,8.14
2023-03-17T10:20:23.288Z,8.21
2023-03-17T10:23:48.858Z,8.28
2023-03-17T10:27:16.416Z,8.32
2023-03-17T10:30:41.370Z,8.38
2023-03-17T10:34:21.058Z,8.43
2023-03-17T10:37:48.017Z,8.46
2023-03-17T10:41:16.898Z,8.50
2023-03-17T10:44:44.221Z,8.53
2023-03-17T10:48:10.846Z,8.56
2023-03-17T10:51:38.522Z,8.60
2023-03-17T10:55:06.932Z,8.58
2023-03-17T10:58:40.441Z,8.58
2023-03-17T11:02:09.591Z,8.60
2023-03-17T11:05:34.600Z,8.60
2023-03-17T11:09:06.402Z,8.58
2023-03-17T11:12:36.980Z,8.59
2023-03-17T11:16:07.670Z,8.55
2023-03-17T11:19:41.336Z,8.52
2023-03-17T11:23:10.981Z,8.55
2023-03-17T11:26:50.390Z,8.61
2023-03-17T11:30:18.367Z,8.63
2023-03-17T11:33:50.029Z,8.68
2023-03-17T11:37:20.945Z,8.73
2023-03-17T11:40:53.515Z,8.76
2023-03-17T11:44:34.854Z,8.80
2023-03-17T11:48:08.074Z,8.94
2023-03-17T11:51:37.828Z,9.13
2023-03-17T11:55:11.425Z,9.34
2023-03-17T11:58:38.918Z,9.58
2023-03-17T12:02:07.543Z,9.76
2023-03-17T12:05:32.804Z,9.92
2023-03-17T12:09:00.024Z,10.06
2023-03-17T12:12:29.583Z,10.32
2023-03-17T12:15:56.701Z,10.57
2023-03-17T12:19:26.679Z,10.79
2023-03-17T12:22:56.009Z,10.93
2023-03-17T12:26:24.649Z,11.08
2023-03-17T12:29:53.598Z,11.32
2023-03-17T12:33:22.341Z,11.47
2023-03-17T12:36:47.504Z,11.50
2023-03-17T12:40:16.551Z,11.40
2023-03-17T12:43:48.351Z,11.30
2023-03-17T12:47:23.940Z,11.42
2023-03-17T12:51:09.345Z,11.61
2023-03-17T12:54:36.880Z,11.85
2023-03-17T12:58:03.783Z,12.06
2023-03-17T13:01:35.121Z,12.25
2023-03-17T13:05:02.211Z,12.31
2023-03-17T13:08:31.975Z,12.39
2023-03-17T13:11:58.002Z,12.62
2023-03-17T13:15:30.980Z,12.85
2023-03-17T13:19:08.100Z,12.96
2023-03-17T13:22:37.294Z,13.03
2023-03-17T13:26:03.208Z,13.13
2023-03-17T13:29:40.142Z,13.13
2023-03-17T13:33:20.112Z,13.15
2023-03-17T13:36:59.020Z,13.24
2023-03-17T13:40:28.847Z,13.36
2023-03-17T13:44:09.795Z,13.44
2023-03-17T13:47:36.869Z,13.53
2023-03-17T13:51:03.563Z,13.59
2023-03-17T13:54:33.573Z,13.62
2023-03-17T13:58:17.393Z,13.64
2023-03-17T14:01:45.439Z,13.68
2023-03-17T14:05:19.831Z,13.74
2023-03-17T14:08:47.448Z,13.81
2023-03-17T14:12:19.128Z,13.79
2023-03-17T14:15:48.671Z,13.85
2023-03-17T14:19:21.798Z,13.83
2023-03-17T14:22:47.916Z,13.80
2023-03-17T14:26:13.530Z,13.77
2023-03-17T14:29:39.768Z,13.64
2023-03-17T14:33:06.573Z,13.55
2023-03-17T14:36:35.166Z,13.47
2023-03-17T14:40:00.643Z,13.35
2023-03-17T14:43:25.750Z,13.19
2023-03-17T14:46:50.802Z,13.08
2023-03-17T14:50:18.973Z,12.94
2023-03-17T14:53:46.670Z,12.81
2023-03-17T14:57:16.385Z,12.68
2023-03-17T15:00:45.716Z,12.56
2023-03-17T15:04:13.652Z,12.47
2023-03-17T15:07:41.061Z,12.29
2023-03-17T15:16:21.749Z,12.32
2023-03-17T15:19:53.381Z,12.09
2023-03-17T15:23:22.437Z,11.92
2023-03-17T15:26:49.134Z,11.76
2023-03-17T15:30:17.434Z,11.60
2023-03-17T15:33:44.802Z,11.44
2023-03-17T15:37:18.707Z,11.32
2023-03-17T15:40:45.043Z,11.18
2023-03-17T15:44:12.113Z,11.05
2023-03-17T15:47:42.089Z,10.94
2023-03-17T15:51:12.192Z,10.86
2023-03-17T15:54:39.205Z,10.77
2023-03-17T15:58:06.433Z,10.69
2023-03-17T16:01:34.240Z,10.59
2023-03-17T16:05:03.272Z,10.49
2023-03-17T16:08:30.397Z,10.39
2023-03-17T16:11:58.171Z,10.29
2023-03-17T16:15:27.413Z,10.16
2023-03-17T16:18:55.842Z,10.02
2023-03-17T16:22:44.417Z,9.92
2023-03-17T16:26:15.874Z,9.81
2023-03-17T16:29:43.211Z,9.73
2023-03-17T16:33:19.727Z,9.65
2023-03-17T16:36:46.350Z,9.54
2023-03-17T16:40:21.937Z,9.44
2023-03-17T16:43:53.088Z,9.33
2023-03-17T16:47:21.655Z,9.24
2023-03-17T16:50:48.565Z,9.15
2023-03-17T16:54:16.516Z,9.06
2023-03-17T16:57:48.508Z,8.96
2023-03-17T17:01:20.259Z,8.85
2023-03-17T17:04:50.101Z,8.76
2023-03-17T17:08:19.437Z,8.66
2023-03-17T17:11:48.648Z,8.59
2023-03-17T17:15:18.897Z,8.53
2023-03-17T17:18:47.579Z,8.47
2023-03-17T17:22:16.397Z,8.38
2023-03-17T17:25:43.797Z,8.31
2023-03-17T17:29:13.356Z,8.24
2023-03-17T17:32:41.656Z,8.15
2023-03-17T17:36:14.097Z,8.09
2023-03-17T17:39:42.083Z,8.02
2023-03-17T17:43:12.757Z,7.97
2023-03-17T17:46:40.252Z,7.92
2023-03-17T17:50:11.766Z,7.86
2023-03-17T17:53:42.598Z,7.80
2023-03-17T17:57:13.960Z,7.73
2023-03-17T18:00:40.733Z,7.68
2023-03-17T18:04:09.851Z,7.63
2023-03-17T18:07:39.523Z,7.58
2023-03-17T18:11:07.151Z,7.55
2023-03-17T18:14:35.073Z,7.49
2023-03-17T18:18:06.992Z,7.45
2023-03-17T18:21:33.748Z,7.41
2023-03-17T18:25:05.970Z,7.37
2023-03-17T18:28:34.293Z,7.32
2023-03-17T18:32:01.861Z,7.27
2023-03-17T18:35:32.797Z,7.22
2023-03-17T18:38:59.616Z,7.17
2023-03-17T18:42:26.768Z,7.11
2023-03-17T18:45:54.092Z,7.05
2023-03-17T18:49:24.420Z,7.02
2023-03-17T18:52:53.672Z,6.99
2023-03-17T18:56:23.480Z,6.95
2023-03-17T18:59:51.674Z,6.92
2023-03-17T19:03:20.542Z,6.83
2023-03-17T19:06:48.490Z,6.86
2023-03-17T19:10:19.183Z,6.82
2023-03-17T19:13:47.487Z,6.78
2023-03-17T19:17:14.366Z,6.74
2023-03-17T19:20:41.605Z,6.73
2023-03-17T19:24:11.899Z,6.72
2023-03-17T19:27:39.120Z,6.70
2023-03-17T19:31:07.072Z,6.69
2023-03-17T19:34:35.011Z,6.67
2023-03-17T19:38:04.045Z,6.65
2023-03-17T19:41:33.124Z,6.63
2023-03-17T19:45:03.860Z,6.62
2023-03-17T19:48:36.801Z,6.60
2023-03-17T19:52:05.258Z,6.59
2023-03-17T19:55:33.530Z,6.58
2023-03-17T19:59:00.788Z,6.57
2023-03-17T20:02:27.999Z,6.56
2023-03-17T20:05:57.013Z,6.53
2023-03-17T20:09:27.224Z,6.51
2023-03-17T20:12:59.747Z,6.49
2023-03-17T20:16:26.717Z,6.48
2023-03-17T20:19:56.134Z,6.48
2023-03-17T20:23:23.671Z,6.47
2023-03-17T20:27:00.752Z,6.45
2023-03-17T20:30:29.902Z,6.43
2023-03-17T20:33:59.416Z,6.42
2023-03-17T20:37:28.643Z,6.42
2023-03-17T20:40:57.009Z,6.40
2023-03-17T20:44:25.444Z,6.38
2023-03-17T20:47:52.550Z,6.36
2023-03-17T20:51:20.578Z,6.35
2023-03-17T20:54:50.341Z,6.35
2023-03-17T20:58:20.178Z,6.33
2023-03-17T21:01:50.238Z,6.30
2023-03-17T21:05:22.720Z,6.26
2023-03-17T21:08:52.548Z,6.23
2023-03-17T21:12:21.789Z,6.22
2023-03-17T21:15:49.959Z,6.18
2023-03-17T21:19:20.434Z,6.16
2023-03-17T21:22:53.768Z,6.13
2023-03-17T21:26:21.909Z,6.10
2023-03-17T21:29:52.874Z,6.07
2023-03-17T21:33:22.003Z,6.04
2023-03-17T21:36:49.241Z,5.99
2023-03-17T21:40:17.395Z,5.96
2023-03-17T21:43:46.857Z,5.92
2023-03-17T21:47:17.063Z,5.89
2023-03-17T21:50:44.972Z,5.86
2023-03-17T21:54:14.873Z,5.85
2023-03-17T21:57:43.820Z,5.82
2023-03-17T22:01:20.686Z,5.78
2023-03-17T22:04:51.133Z,5.74
2023-03-17T22:08:19.209Z,5.71
2023-03-17T22:11:48.385Z,5.69
2023-03-17T22:15:17.953Z,5.67
2023-03-17T22:18:48.450Z,5.62
2023-03-17T22:22:16.169Z,5.61
2023-03-17T22:25:44.238Z,5.60
2023-03-17T22:29:13.149Z,5.57
2023-03-17T22:32:41.346Z,5.54
2023-03-17T22:36:11.896Z,5.49
2023-03-17T22:39:40.393Z,5.48
2023-03-17T22:43:07.591Z,5.44
2023-03-17T22:46:35.392Z,5.41
2023-03-17T22:50:02.475Z,5.38
2023-03-17T22:53:31.946Z,5.34
2023-03-17T22:57:05.649Z,5.30
2023-03-17T23:00:35.304Z,5.25
2023-03-17T23:04:03.697Z,5.22
2023-03-17T23:07:49.488Z,5.19
2023-03-17T23:11:23.452Z,5.16
2023-03-17T23:14:49.460Z,5.11
2023-03-17T23:18:17.809Z,5.05
2023-03-17T23:21:47.723Z,5.02
2023-03-17T23:25:16.446Z,5.01
2023-03-17T23:28:46.933Z,4.99
2023-03-17T23:32:15.951Z,4.97
2023-03-17T23:35:43.032Z,4.94
2023-03-17T23:39:12.633Z,4.93
2023-03-17T23:42:42.030Z,4.90
2023-03-17T23:46:10.617Z,4.88
2023-03-17T23:49:37.564Z,4.86
2023-03-17T23:53:04.988Z,4.82
2023-03-17T23:56:33.817Z,4.79
